Time;durP1;ratioP1;P1;durP2;ratioP2;P2;SDS_P1;SDS_P2;PMS_P1;PMS_P2;Temp;Humidity;BMP_temperature;BMP_pressure;BME280_temperature;BME280_humidity;BME280_pressure;Samples;Min_cycle;Max_cycle;Signal;HPM_P1;HPM_P2
2022/12/30 00:01:13;;;;;;;;;;;;;;;5.78;89.80;100937.28;5079063;28;19916;-60
2022/12/30 00:03:39;;;;;;;;;;;;;;;5.80;89.94;100942.41;5083412;28;19959;-61
2022/12/30 00:06:05;;;;;;;;;;;;;;;5.78;90.36;100939.91;5084839;28;20354;-59
2022/12/30 00:08:46;;;;;;;;;;;;;;;5.80;89.99;100953.78;5082313;28;19912;-61
2022/12/30 00:11:11;;;;;;;;;;;;;;;5.83;90.06;100950.88;5076206;28;19920;-59
2022/12/30 00:33:08;;;;;;;;;;;;;;;5.65;90.42;100973.56;5091726;28;20023;-60
2022/12/30 00:35:33;;;;;;;;;;;;;;;5.64;90.47;100977.16;5087446;28;19958;-60
2022/12/30 00:37:59;;;;;;;;;;;;;;;5.59;90.27;100961.78;5079095;28;19956;-58
2022/12/30 00:40:24;;;;;;;;;;;;;;;5.60;90.39;100967.88;5079111;28;19916;-57
2022/12/30 00:43:07;;;;;;;;;;;;;;;5.59;90.41;100956.50;5085293;28;19977;-60
2022/12/30 00:45:33;;;;;;;;;;;;;;;5.55;90.74;100959.53;5077658;28;19920;-60
2022/12/30 00:47:58;;;;;;;;;;;;;;;5.49;90.55;100965.31;5080402;28;20047;-61
2022/12/30 00:56:09;;;;;;;;;;;;;;;5.37;90.74;100969.03;5076792;28;19927;-59
2022/12/30 00:58:35;;;;;;;;;;;;;;;5.32;91.17;100969.47;5078668;28;19922;-59
2022/12/30 01:01:00;;;;;;;;;;;;;;;5.29;91.40;100973.19;5076445;28;19995;-60
2022/12/30 01:03:25;;;;;;;;;;;;;;;5.27;91.27;100971.66;5097031;28;19917;-58
2022/12/30 01:05:50;;;;;;;;;;;;;;;5.26;91.47;100983.16;5068557;28;19924;-61
2022/12/30 01:08:16;;;;;;;;;;;;;;;5.28;91.80;100989.97;5077545;28;20363;-61
2022/12/30 01:10:41;;;;;;;;;;;;;;;5.29;91.94;100980.25;5079689;28;19920;-59
2022/12/30 01:13:07;;;;;;;;;;;;;;;5.28;91.79;100982.06;5079886;28;19916;-59
2022/12/30 01:15:32;;;;;;;;;;;;;;;5.27;91.81;100995.34;5078432;28;19916;-59
2022/12/30 01:17:57;;;;;;;;;;;;;;;5.26;91.94;100993.69;5084007;28;20327;-59
2022/12/30 01:20:22;;;;;;;;;;;;;;;5.28;92.29;100982.06;5091038;28;19999;-58
2022/12/30 01:22:47;;;;;;;;;;;;;;;5.31;92.01;100985.38;5085151;28;19932;-57
2022/12/30 01:25:12;;;;;;;;;;;;;;;5.26;92.28;100986.63;5085132;28;19920;-59
2022/12/30 01:27:38;;;;;;;;;;;;;;;5.26;92.10;100985.78;5092329;28;20072;-57
2022/12/30 01:30:03;;;;;;;;;;;;;;;5.24;92.20;100998.25;5095749;28;19920;-60
2022/12/30 01:32:29;;;;;;;;;;;;;;;5.25;92.38;101006.03;5096732;28;20397;-61
2022/12/30 01:34:55;;;;;;;;;;;;;;;5.25;92.47;100995.50;5081982;28;19963;-60
2022/12/30 01:37:21;;;;;;;;;;;;;;;5.27;92.43;100998.81;5090235;28;19976;-58
2022/12/30 01:39:46;;;;;;;;;;;;;;;5.28;92.50;101005.75;5082853;28;19924;-61
2022/12/30 01:42:18;;;;;;;;;;;;;;;5.30;92.51;101008.25;5083095;28;19920;-62
2022/12/30 01:44:47;;;;;;;;;;;;;;;5.29;92.72;101010.06;5084069;28;20065;-60
2022/12/30 01:47:15;;;;;;;;;;;;;;;5.32;92.52;101013.38;5088554;28;19934;-59
2022/12/30 01:49:42;;;;;;;;;;;;;;;5.31;92.87;101024.88;5095346;28;20021;-61
2022/12/30 01:52:08;;;;;;;;;;;;;;;5.31;92.57;101016.97;5095223;28;19916;-59
2022/12/30 01:54:34;;;;;;;;;;;;;;;5.27;92.74;101017.25;5076552;28;19923;-59
2022/12/30 01:56:59;;;;;;;;;;;;;;;5.26;92.53;101023.47;5087576;28;19916;-61
2022/12/30 01:59:26;;;;;;;;;;;;;;;5.24;92.80;101033.31;5086298;28;19916;-60
2022/12/30 02:01:51;;;;;;;;;;;;;;;5.21;92.90;101030.13;5092710;28;20329;-61
2022/12/30 02:04:18;;;;;;;;;;;;;;;5.16;92.57;101017.31;5074070;28;19929;-60
2022/12/30 02:06:58;;;;;;;;;;;;;;;5.14;92.62;101021.06;5080353;28;19981;-60
2022/12/30 02:09:27;;;;;;;;;;;;;;;5.12;93.12;101012.44;5080703;28;19927;-57
2022/12/30 02:11:52;;;;;;;;;;;;;;;5.09;93.05;101005.66;5080751;28;19920;-59
2022/12/30 02:14:18;;;;;;;;;;;;;;;5.04;93.08;101009.66;5081975;28;19920;-58
2022/12/30 02:16:54;;;;;;;;;;;;;;;5.01;93.21;101005.47;5080506;28;19951;-63
2022/12/30 02:19:34;;;;;;;;;;;;;;;5.00;93.18;101005.63;5085225;28;20403;-57
2022/12/30 02:22:05;;;;;;;;;;;;;;;4.96;93.34;101003.25;5088659;28;19912;-56
2022/12/30 02:24:30;;;;;;;;;;;;;;;4.97;93.63;101001.44;5084086;28;19920;-58
2022/12/30 02:27:14;;;;;;;;;;;;;;;4.93;93.41;100998.25;5080700;28;20395;-60
2022/12/30 02:29:54;;;;;;;;;;;;;;;4.92;93.63;100990.47;5081258;28;19923;-60
2022/12/30 02:32:30;;;;;;;;;;;;;;;4.91;93.62;101000.16;5082205;28;19912;-58
2022/12/30 02:35:00;;;;;;;;;;;;;;;4.91;93.88;100989.63;5084722;28;19920;-63
2022/12/30 02:37:30;;;;;;;;;;;;;;;4.93;94.05;101002.69;5075137;28;20015;-61
2022/12/30 02:40:07;;;;;;;;;;;;;;;4.91;93.96;100988.78;5079472;28;19923;-57
2022/12/30 02:45:43;;;;;;;;;;;;;;;4.91;93.89;100975.63;5083835;28;20406;-61
2022/12/30 02:48:17;;;;;;;;;;;;;;;4.90;93.74;100973.97;5084624;28;20375;-60
2022/12/30 02:53:28;;;;;;;;;;;;;;;4.89;93.92;100974.94;5084520;28;20452;-59
2022/12/30 02:55:54;;;;;;;;;;;;;;;4.88;93.75;100968.00;5080621;28;19920;-60
2022/12/30 02:58:20;;;;;;;;;;;;;;;4.87;93.97;100961.06;5077280;28;19920;-57
2022/12/30 03:03:59;;;;;;;;;;;;;;;4.90;94.12;100959.00;5073577;28;19927;-61
2022/12/30 03:06:43;;;;;;;;;;;;;;;4.90;93.88;100955.53;5078954;28;19952;-59
2022/12/30 03:09:17;;;;;;;;;;;;;;;4.91;93.87;100960.69;5081129;28;20004;-59
2022/12/30 03:11:51;;;;;;;;;;;;;;;4.92;93.97;100957.09;5079644;28;19920;-60
2022/12/30 03:14:33;;;;;;;;;;;;;;;4.95;94.31;100963.91;5081362;28;19920;-58
2022/12/30 03:17:04;;;;;;;;;;;;;;;4.93;93.78;100963.22;5084681;28;19920;-61
2022/12/30 03:19:32;;;;;;;;;;;;;;;4.91;93.87;100965.09;5079699;28;19917;-61
2022/12/30 03:21:59;;;;;;;;;;;;;;;4.88;93.73;100960.09;5082993;28;19951;-62
2022/12/30 03:27:14;;;;;;;;;;;;;;;4.83;93.70;100959.66;5084790;28;20485;-59
2022/12/30 03:29:54;;;;;;;;;;;;;;;4.77;93.83;100955.78;5087151;28;19916;-58
2022/12/30 03:32:20;;;;;;;;;;;;;;;4.71;93.67;100955.47;5083137;28;19962;-59
2022/12/30 03:34:46;;;;;;;;;;;;;;;4.69;93.82;100950.34;5080605;28;20603;-61
2022/12/30 03:37:47;;;;;;;;;;;;;;;4.66;94.03;100954.06;5077459;28;19962;-61
2022/12/30 03:40:23;;;;;;;;;;;;;;;4.62;94.17;100957.88;5039271;28;19925;-59
2022/12/30 03:42:50;;;;;;;;;;;;;;;4.61;94.28;100961.47;5076328;28;20431;-61
2022/12/30 03:45:17;;;;;;;;;;;;;;;4.62;94.49;100955.25;5084310;28;19920;-60
2022/12/30 03:47:42;;;;;;;;;;;;;;;4.60;94.36;100961.59;5074405;28;19920;-60
2022/12/30 03:50:08;;;;;;;;;;;;;;;4.57;94.49;100967.13;5080984;28;20343;-59
2022/12/30 03:52:33;;;;;;;;;;;;;;;4.52;94.42;100961.44;5078245;28;19916;-61
2022/12/30 03:54:58;;;;;;;;;;;;;;;4.50;94.47;100966.81;5086453;28;20014;-58
2022/12/30 03:57:23;;;;;;;;;;;;;;;4.51;94.96;100965.03;5082443;28;19916;-61
2022/12/30 03:59:48;;;;;;;;;;;;;;;4.50;94.99;100960.72;5086177;28;19916;-58
2022/12/30 04:02:13;;;;;;;;;;;;;;;4.48;95.00;100960.03;5071664;28;20042;-58
2022/12/30 04:04:39;;;;;;;;;;;;;;;4.44;94.94;100956.81;5072480;28;19939;-60
2022/12/30 04:07:04;;;;;;;;;;;;;;;4.44;95.23;100959.44;5080014;28;19916;-60
2022/12/30 04:09:29;;;;;;;;;;;;;;;4.42;95.23;100964.00;5079514;28;20287;-61
2022/12/30 04:11:54;;;;;;;;;;;;;;;4.38;94.95;100967.84;5075255;28;19923;-58
2022/12/30 04:14:19;;;;;;;;;;;;;;;4.37;95.10;100965.34;5081020;28;19920;-60
2022/12/30 04:16:45;;;;;;;;;;;;;;;4.31;95.17;100975.38;5087466;28;19916;-60
2022/12/30 04:19:10;;;;;;;;;;;;;;;4.28;95.49;100974.81;5078213;28;19916;-60
2022/12/30 04:21:35;;;;;;;;;;;;;;;4.24;95.55;100974.22;5076562;28;19916;-58
2022/12/30 04:24:00;;;;;;;;;;;;;;;4.19;95.29;100972.94;5082551;28;19917;-61
2022/12/30 04:26:26;;;;;;;;;;;;;;;4.14;95.30;100975.97;5078392;28;19994;-61
2022/12/30 04:28:51;;;;;;;;;;;;;;;4.12;95.52;100982.31;5080058;28;20414;-60
2022/12/30 04:31:16;;;;;;;;;;;;;;;4.11;96.00;100980.63;5082603;28;20260;-59
2022/12/30 04:33:41;;;;;;;;;;;;;;;4.12;96.22;100971.78;5087577;28;19915;-58
2022/12/30 04:36:07;;;;;;;;;;;;;;;4.12;96.28;100970.00;5081043;28;20031;-60
2022/12/30 04:38:32;;;;;;;;;;;;;;;4.12;96.25;100961.28;5082243;28;19927;-56
2022/12/30 04:40:57;;;;;;;;;;;;;;;4.12;96.33;100963.91;5086816;28;19965;-58
2022/12/30 04:43:22;;;;;;;;;;;;;;;4.10;96.21;100963.19;5079770;28;19912;-59
2022/12/30 04:45:48;;;;;;;;;;;;;;;4.07;96.26;100960.81;5089949;28;19916;-61
2022/12/30 04:48:13;;;;;;;;;;;;;;;4.02;96.45;100962.00;5086505;28;19922;-60
2022/12/30 04:50:42;;;;;;;;;;;;;;;3.99;96.50;100961.44;5086172;28;19920;-61
2022/12/30 04:53:07;;;;;;;;;;;;;;;3.97;96.61;100950.22;5081897;28;19922;-58
2022/12/30 04:55:33;;;;;;;;;;;;;;;3.96;96.94;100941.50;5083252;28;20015;-58
2022/12/30 04:57:58;;;;;;;;;;;;;;;3.97;97.12;100948.41;5086287;28;19974;-58
2022/12/30 05:00:23;;;;;;;;;;;;;;;4.00;97.51;100956.06;5086812;28;19916;-60
2022/12/30 05:02:48;;;;;;;;;;;;;;;4.02;97.18;100959.38;5085493;28;19962;-60
2022/12/30 05:05:13;;;;;;;;;;;;;;;4.02;97.46;100946.25;5081879;28;20426;-59
2022/12/30 05:07:39;;;;;;;;;;;;;;;4.01;97.58;100944.59;5084322;28;20023;-60
2022/12/30 05:10:04;;;;;;;;;;;;;;;4.00;97.35;100956.06;5084054;28;19916;-57
2022/12/30 05:12:29;;;;;;;;;;;;;;;4.01;97.48;100949.84;5080508;28;19927;-60
2022/12/30 05:14:54;;;;;;;;;;;;;;;4.02;97.64;100951.50;5090607;28;20010;-58
2022/12/30 05:17:19;;;;;;;;;;;;;;;4.01;97.52;100955.09;5080289;28;19916;-58
2022/12/30 05:19:45;;;;;;;;;;;;;;;4.02;97.48;100945.41;5082796;28;19955;-58
2022/12/30 05:22:10;;;;;;;;;;;;;;;4.03;97.63;100944.44;5082893;28;19927;-59
2022/12/30 05:27:19;;;;;;;;;;;;;;;4.04;97.55;100956.63;5086697;28;19923;-60
2022/12/30 05:29:44;;;;;;;;;;;;;;;4.04;98.00;100952.22;5084032;28;19916;-60
2022/12/30 05:32:09;;;;;;;;;;;;;;;4.06;97.86;100940.75;5085638;28;19938;-60
2022/12/30 05:34:34;;;;;;;;;;;;;;;4.04;97.92;100944.31;5093504;28;19916;-59
2022/12/30 05:37:00;;;;;;;;;;;;;;;4.06;97.93;100938.13;5088422;28;19921;-59
2022/12/30 05:39:25;;;;;;;;;;;;;;;4.05;97.84;100939.94;5100189;28;20033;-59
2022/12/30 05:41:50;;;;;;;;;;;;;;;4.02;97.38;100943.63;5084763;28;19924;-59
2022/12/30 05:44:15;;;;;;;;;;;;;;;4.01;97.48;100947.22;5085751;28;20315;-58
2022/12/30 05:46:40;;;;;;;;;;;;;;;3.98;97.53;100944.84;5081765;28;20007;-59
2022/12/30 05:49:05;;;;;;;;;;;;;;;3.98;97.38;100946.63;5082557;28;19939;-60
2022/12/30 05:51:31;;;;;;;;;;;;;;;3.97;97.71;100943.16;5080088;28;20009;-58
2022/12/30 05:53:56;;;;;;;;;;;;;;;4.00;97.58;100945.53;5078897;28;19916;-60
2022/12/30 05:56:21;;;;;;;;;;;;;;;4.02;97.98;100940.16;5083495;28;19943;-58
2022/12/30 05:58:46;;;;;;;;;;;;;;;4.05;98.27;100934.69;5088106;28;19925;-61
2022/12/30 06:01:11;;;;;;;;;;;;;;;4.07;98.26;100932.75;5080642;28;20322;-60
2022/12/30 06:03:37;;;;;;;;;;;;;;;4.08;98.72;100939.69;5090183;28;20000;-58
2022/12/30 06:06:03;;;;;;;;;;;;;;;4.10;98.86;100929.88;5079837;28;20608;-58
2022/12/30 06:08:29;;;;;;;;;;;;;;;4.11;98.84;100931.53;5080859;28;19916;-60
2022/12/30 06:10:54;;;;;;;;;;;;;;;4.14;99.13;100927.81;5083488;28;20010;-58
2022/12/30 06:13:19;;;;;;;;;;;;;;;4.16;99.27;100923.28;5076543;28;19963;-60
2022/12/30 06:15:44;;;;;;;;;;;;;;;4.16;99.25;100910.97;5082666;28;19923;-59
2022/12/30 06:18:10;;;;;;;;;;;;;;;4.19;99.49;100915.13;5082620;28;19916;-60
2022/12/30 06:20:35;;;;;;;;;;;;;;;4.23;99.44;100906.03;5082865;28;20727;-60
2022/12/30 06:23:00;;;;;;;;;;;;;;;4.25;99.46;100912.81;5087485;28;19916;-60
2022/12/30 06:25:26;;;;;;;;;;;;;;;4.25;99.28;100904.09;5080651;28;19924;-57
2022/12/30 06:27:51;;;;;;;;;;;;;;;4.25;99.43;100909.34;5085268;28;19989;-59
2022/12/30 06:30:16;;;;;;;;;;;;;;;4.27;99.73;100902.16;5083318;28;19915;-57
2022/12/30 06:32:41;;;;;;;;;;;;;;;4.26;99.64;100896.09;5085672;28;20007;-63
2022/12/30 06:35:07;;;;;;;;;;;;;;;4.28;99.74;100901.22;5090270;28;20372;-60
2022/12/30 06:37:32;;;;;;;;;;;;;;;4.29;99.46;100908.13;5083923;28;19923;-61
2022/12/30 06:39:58;;;;;;;;;;;;;;;4.27;99.23;100913.53;5080600;28;20287;-60
2022/12/30 06:42:23;;;;;;;;;;;;;;;4.25;99.48;100907.56;5082146;28;19962;-60
2022/12/30 06:44:48;;;;;;;;;;;;;;;4.30;99.61;100891.41;5086562;28;19920;-60
2022/12/30 06:47:13;;;;;;;;;;;;;;;4.28;99.38;100883.63;5081195;28;20403;-60
2022/12/30 06:49:38;;;;;;;;;;;;;;;4.30;99.32;100879.09;5082508;28;19920;-57
2022/12/30 06:52:04;;;;;;;;;;;;;;;4.28;99.27;100873.13;5078563;28;19916;-61
2022/12/30 06:54:29;;;;;;;;;;;;;;;4.28;99.38;100862.63;5079503;28;20006;-60
2022/12/30 06:56:54;;;;;;;;;;;;;;;4.27;99.20;100866.19;5078068;28;20464;-60
2022/12/30 06:59:19;;;;;;;;;;;;;;;4.28;99.44;100851.25;5081483;28;19939;-60
2022/12/30 07:01:45;;;;;;;;;;;;;;;4.29;99.53;100847.66;5084100;28;20299;-58
2022/12/30 07:04:10;;;;;;;;;;;;;;;4.29;99.38;100845.03;5079178;28;19920;-61
2022/12/30 07:06:35;;;;;;;;;;;;;;;4.30;99.71;100831.75;5084588;28;19923;-61
2022/12/30 07:09:00;;;;;;;;;;;;;;;4.29;99.41;100830.09;5084711;28;19921;-61
2022/12/30 07:11:25;;;;;;;;;;;;;;;4.29;99.41;100821.38;5093446;28;19922;-60
2022/12/30 07:13:50;;;;;;;;;;;;;;;4.31;99.75;100820.28;5081428;28;19924;-61
2022/12/30 07:16:16;;;;;;;;;;;;;;;4.33;99.87;100825.41;5088277;28;20333;-60
2022/12/30 07:18:41;;;;;;;;;;;;;;;4.37;100.00;100818.13;5087353;28;19912;-61
2022/12/30 07:21:06;;;;;;;;;;;;;;;4.36;99.92;100812.03;5073815;28;19920;-62
2022/12/30 07:23:31;;;;;;;;;;;;;;;4.37;99.77;100818.13;5078289;28;20400;-61
2022/12/30 07:25:56;;;;;;;;;;;;;;;4.39;99.87;100821.44;5080986;28;19920;-59
2022/12/30 07:28:22;;;;;;;;;;;;;;;4.40;100.00;100818.69;5083642;28;19927;-60
2022/12/30 07:30:47;;;;;;;;;;;;;;;4.43;100.00;100823.69;5081025;28;19916;-60
2022/12/30 07:33:12;;;;;;;;;;;;;;;4.45;100.00;100821.75;5085476;28;19932;-60
2022/12/30 07:35:37;;;;;;;;;;;;;;;4.47;100.00;100822.44;5096708;28;20002;-61
2022/12/30 07:38:02;;;;;;;;;;;;;;;4.48;99.91;100808.34;5079262;28;20410;-57
2022/12/30 07:40:28;;;;;;;;;;;;;;;4.51;100.00;100805.44;5078007;28;19999;-61
2022/12/30 07:42:53;;;;;;;;;;;;;;;4.52;99.99;100807.09;5081849;28;20049;-62
2022/12/30 07:45:18;;;;;;;;;;;;;;;4.53;99.89;100790.38;5082878;28;20585;-60
2022/12/30 07:47:43;;;;;;;;;;;;;;;4.58;99.92;100782.91;5083378;28;19924;-64
2022/12/30 07:50:10;;;;;;;;;;;;;;;4.58;99.94;100784.69;5083792;28;20020;-58
2022/12/30 07:52:35;;;;;;;;;;;;;;;4.59;99.64;100770.59;5079392;28;19923;-60
2022/12/30 07:55:00;;;;;;;;;;;;;;;4.60;99.75;100780.13;5077025;28;19916;-59
2022/12/30 07:57:26;;;;;;;;;;;;;;;4.59;99.54;100770.59;5077588;28;20433;-60
2022/12/30 07:59:51;;;;;;;;;;;;;;;4.58;99.51;100759.22;5079349;28;19920;-60
2022/12/30 08:02:16;;;;;;;;;;;;;;;4.60;99.84;100749.41;5084627;28;19916;-58
2022/12/30 08:04:42;;;;;;;;;;;;;;;4.62;99.52;100744.00;5077860;28;19924;-61
2022/12/30 08:07:07;;;;;;;;;;;;;;;4.62;99.54;100736.94;5084818;28;19927;-58
2022/12/30 08:09:32;;;;;;;;;;;;;;;4.63;99.60;100745.72;5079184;28;20027;-61
2022/12/30 08:11:57;;;;;;;;;;;;;;;4.66;99.30;100738.38;5083828;28;20376;-58
2022/12/30 08:14:24;;;;;;;;;;;;;;;4.68;99.62;100742.66;5085893;28;19916;-58
2022/12/30 08:16:49;;;;;;;;;;;;;;;4.73;99.53;100735.19;5075159;28;19931;-59
2022/12/30 08:19:14;;;;;;;;;;;;;;;4.74;99.79;100734.22;5077487;28;19924;-61
2022/12/30 08:21:40;;;;;;;;;;;;;;;4.77;99.57;100736.59;5077801;28;19981;-59
2022/12/30 08:24:05;;;;;;;;;;;;;;;4.80;99.77;100733.69;5077452;28;19919;-58
2022/12/30 08:26:30;;;;;;;;;;;;;;;4.85;99.34;100724.41;5076623;28;20319;-60
2022/12/30 08:28:55;;;;;;;;;;;;;;;4.87;99.77;100722.47;5084960;28;19942;-59
2022/12/30 08:31:22;;;;;;;;;;;;;;;4.91;99.48;100723.03;5074206;28;20299;-61
2022/12/30 08:33:47;;;;;;;;;;;;;;;4.96;99.66;100721.66;5082690;28;19999;-58
2022/12/30 08:36:15;;;;;;;;;;;;;;;5.02;99.55;100708.94;5095437;28;19995;-60
2022/12/30 08:38:42;;;;;;;;;;;;;;;5.07;99.86;100699.63;5069019;28;19920;-61
2022/12/30 08:41:09;;;;;;;;;;;;;;;5.15;99.50;100699.78;5079173;28;19922;-60
2022/12/30 08:43:34;;;;;;;;;;;;;;;5.20;99.47;100702.84;5076100;28;19974;-58
2022/12/30 08:45:59;;;;;;;;;;;;;;;5.26;99.52;100693.56;5082651;28;19924;-58
2022/12/30 08:48:25;;;;;;;;;;;;;;;5.30;99.71;100692.28;5077637;28;19916;-60
2022/12/30 08:50:52;;;;;;;;;;;;;;;5.35;99.57;100683.97;5081635;28;19916;-60
2022/12/30 08:53:17;;;;;;;;;;;;;;;5.41;99.65;100672.88;5075012;28;20311;-60
2022/12/30 08:55:43;;;;;;;;;;;;;;;5.44;99.47;100676.03;5080820;28;19912;-59
2022/12/30 08:58:08;;;;;;;;;;;;;;;5.50;99.55;100670.22;5084385;28;19919;-60
2022/12/30 09:00:33;;;;;;;;;;;;;;;5.52;99.53;100654.28;5083350;28;20034;-60
2022/12/30 09:02:58;;;;;;;;;;;;;;;5.57;99.35;100657.31;5075561;28;19939;-60
2022/12/30 09:05:23;;;;;;;;;;;;;;;5.68;99.37;100659.78;5084053;28;20586;-59
2022/12/30 09:07:48;;;;;;;;;;;;;;;5.75;99.28;100660.84;5084972;28;19924;-59
2022/12/30 09:10:13;;;;;;;;;;;;;;;5.79;99.16;100664.06;5076729;28;20443;-60
2022/12/30 09:12:39;;;;;;;;;;;;;;;5.83;98.83;100655.72;5075802;28;20008;-59
2022/12/30 09:15:04;;;;;;;;;;;;;;;5.90;98.55;100646.28;5076018;28;19924;-61
2022/12/30 09:17:30;;;;;;;;;;;;;;;5.92;98.34;100647.94;5081621;28;20394;-60
2022/12/30 09:19:55;;;;;;;;;;;;;;;6.03;98.31;100647.75;5072996;28;19916;-60
2022/12/30 09:22:20;;;;;;;;;;;;;;;6.04;97.97;100644.97;5080993;28;19948;-59
2022/12/30 09:24:45;;;;;;;;;;;;;;;6.11;98.13;100639.94;5075982;28;19926;-61
2022/12/30 09:27:10;;;;;;;;;;;;;;;6.13;98.04;100638.00;5079795;28;19920;-60
2022/12/30 09:29:35;;;;;;;;;;;;;;;6.15;97.70;100626.31;5073773;28;19962;-58
2022/12/30 09:32:01;;;;;;;;;;;;;;;6.19;97.51;100627.69;5084522;28;19999;-61
2022/12/30 09:34:26;;;;;;;;;;;;;;;6.26;97.30;100632.38;5085783;28;20261;-64
2022/12/30 09:36:51;;;;;;;;;;;;;;;6.32;97.06;100626.50;5085512;28;19958;-60
2022/12/30 09:39:16;;;;;;;;;;;;;;;6.36;96.81;100612.88;5091859;28;20335;-62
2022/12/30 09:44:45;;;;;;;;;;;;;;;6.46;96.66;100611.00;5074914;28;19927;-60
2022/12/30 09:47:19;;;;;;;;;;;;;;;6.50;96.48;100600.97;5082100;28;19923;-60
2022/12/30 09:49:47;;;;;;;;;;;;;;;6.56;95.91;100605.66;5089433;28;20417;-55
2022/12/30 09:52:20;;;;;;;;;;;;;;;6.58;96.31;100601.03;5088859;28;19924;-60
2022/12/30 09:54:51;;;;;;;;;;;;;;;6.67;95.81;100596.69;5097489;28;19999;-60
2022/12/30 09:57:30;;;;;;;;;;;;;;;6.71;95.51;100590.13;5083257;28;19912;-62
2022/12/30 09:59:58;;;;;;;;;;;;;;;6.75;95.53;100584.38;5084465;28;20456;-60
2022/12/30 10:02:33;;;;;;;;;;;;;;;6.81;95.03;100582.94;5085408;28;19915;-60
2022/12/30 10:04:59;;;;;;;;;;;;;;;6.84;94.71;100569.44;5080776;28;20313;-63
2022/12/30 10:07:27;;;;;;;;;;;;;;;6.87;94.47;100560.38;5085624;28;19924;-60
2022/12/30 10:10:05;;;;;;;;;;;;;;;6.92;94.75;100561.56;5077359;28;20339;-59
2022/12/30 10:12:36;;;;;;;;;;;;;;;6.96;94.61;100547.13;5082986;28;19985;-60
2022/12/30 10:15:04;;;;;;;;;;;;;;;6.99;94.06;100552.09;5090548;28;19963;-62
2022/12/30 10:17:48;;;;;;;;;;;;;;;7.06;94.13;100536.44;5081697;28;20436;-60
2022/12/30 10:20:22;;;;;;;;;;;;;;;7.08;93.74;100530.03;5077768;28;20422;-60
2022/12/30 10:22:58;;;;;;;;;;;;;;;7.11;93.51;100520.97;5076324;28;20522;-60
2022/12/30 10:25:49;;;;;;;;;;;;;;;7.12;93.82;100512.88;5084453;28;19924;-60
2022/12/30 10:28:20;;;;;;;;;;;;;;;7.15;93.14;100504.66;5052207;28;19963;-60
2022/12/30 10:30:47;;;;;;;;;;;;;;;7.18;93.22;100489.47;5080484;28;19924;-62
2022/12/30 10:33:18;;;;;;;;;;;;;;;7.23;92.75;100488.03;5086232;28;19923;-61
2022/12/30 10:35:43;;;;;;;;;;;;;;;7.26;92.65;100484.25;5080778;28;20026;-61
2022/12/30 10:38:10;;;;;;;;;;;;;;;7.28;92.38;100474.34;5080331;28;20450;-60
2022/12/30 10:40:48;;;;;;;;;;;;;;;7.32;92.32;100473.06;5078644;28;19971;-58
2022/12/30 10:43:17;;;;;;;;;;;;;;;7.33;92.38;100461.50;5076191;28;19916;-59
2022/12/30 10:45:42;;;;;;;;;;;;;;;7.32;92.39;100454.56;5079334;28;20997;-60
2022/12/30 10:48:13;;;;;;;;;;;;;;;7.37;92.13;100441.69;5081775;28;20379;-61
2022/12/30 10:50:44;;;;;;;;;;;;;;;7.37;92.10;100434.59;5079030;28;20012;-62
2022/12/30 10:53:18;;;;;;;;;;;;;;;7.40;91.85;100423.72;5079830;28;20011;-61
2022/12/30 10:56:04;;;;;;;;;;;;;;;7.42;91.28;100413.81;5080207;28;19969;-62
2022/12/30 10:58:32;;;;;;;;;;;;;;;7.47;91.83;100400.94;5083364;28;20379;-61
2022/12/30 11:00:58;;;;;;;;;;;;;;;7.47;91.44;100393.00;5076905;28;19923;-60
2022/12/30 11:03:29;;;;;;;;;;;;;;;7.47;91.55;100393.00;5084235;28;19931;-61
2022/12/30 11:05:54;;;;;;;;;;;;;;;7.51;91.24;100377.66;5082440;28;19920;-61
2022/12/30 11:08:27;;;;;;;;;;;;;;;7.53;91.05;100369.59;5083612;28;19962;-60
2022/12/30 11:11:00;;;;;;;;;;;;;;;7.57;91.25;100355.06;5081914;28;20356;-62
2022/12/30 11:16:10;;;;;;;;;;;;;;;7.58;90.49;100349.63;5086123;28;20014;-60
2022/12/30 11:18:35;;;;;;;;;;;;;;;7.64;90.50;100337.56;5073299;28;20011;-60
2022/12/30 11:21:01;;;;;;;;;;;;;;;7.66;90.61;100328.47;5084771;28;19920;-60
2022/12/30 11:23:40;;;;;;;;;;;;;;;7.69;90.74;100311.47;5074640;28;20499;-59
2022/12/30 11:26:15;;;;;;;;;;;;;;;7.69;90.44;100320.22;5076265;28;19920;-60
2022/12/30 11:28:45;;;;;;;;;;;;;;;7.72;90.16;100300.56;5078856;28;19924;-62
2022/12/30 11:31:11;;;;;;;;;;;;;;;7.73;90.27;100292.47;5080148;28;20379;-60
2022/12/30 11:33:38;;;;;;;;;;;;;;;7.78;90.35;100287.50;5076995;28;20356;-60
2022/12/30 11:36:18;;;;;;;;;;;;;;;7.77;89.93;100275.28;5094302;28;19924;-61
2022/12/30 11:38:45;;;;;;;;;;;;;;;7.79;90.00;100267.19;5079955;28;20576;-63
2022/12/30 11:41:16;;;;;;;;;;;;;;;7.86;90.19;100251.50;5083063;28;19916;-59
2022/12/30 11:43:43;;;;;;;;;;;;;;;7.84;90.10;100242.91;5078956;28;19913;-59
2022/12/30 11:46:10;;;;;;;;;;;;;;;7.84;89.71;100242.91;5082013;28;19920;-60
2022/12/30 11:48:53;;;;;;;;;;;;;;;7.92;90.05;100237.59;5074133;28;20401;-59
2022/12/30 11:51:20;;;;;;;;;;;;;;;7.96;89.94;100231.81;5077187;28;19916;-60
2022/12/30 11:53:46;;;;;;;;;;;;;;;7.96;89.26;100226.53;5083951;28;19916;-64
2022/12/30 11:56:12;;;;;;;;;;;;;;;8.00;89.06;100217.25;5081949;28;19917;-62
2022/12/30 11:58:38;;;;;;;;;;;;;;;8.03;89.07;100208.97;5088200;28;19916;-58
2022/12/30 12:01:09;;;;;;;;;;;;;;;8.07;89.20;100199.72;5080432;28;19939;-60
2022/12/30 12:03:54;;;;;;;;;;;;;;;8.12;88.87;100183.38;5088888;28;19952;-60
2022/12/30 12:06:20;;;;;;;;;;;;;;;8.14;89.08;100162.84;5078106;28;19999;-61
2022/12/30 12:08:50;;;;;;;;;;;;;;;8.21;89.04;100149.75;5075717;28;20011;-61
2022/12/30 12:11:17;;;;;;;;;;;;;;;8.20;88.73;100156.03;5073174;28;20419;-60
2022/12/30 12:13:55;;;;;;;;;;;;;;;8.25;88.18;100151.88;5077458;28;19913;-59
2022/12/30 12:16:29;;;;;;;;;;;;;;;8.31;88.55;100139.78;5074892;28;19917;-61
2022/12/30 12:18:59;;;;;;;;;;;;;;;8.29;87.94;100142.59;5082622;28;20018;-62
2022/12/30 12:21:26;;;;;;;;;;;;;;;8.29;88.11;100129.38;5076504;28;19920;-58
2022/12/30 12:24:04;;;;;;;;;;;;;;;8.37;88.26;100141.75;5071688;28;19965;-58
2022/12/30 12:26:40;;;;;;;;;;;;;;;8.37;87.73;100126.72;5081313;28;19920;-58
2022/12/30 12:29:08;;;;;;;;;;;;;;;8.36;87.29;100109.19;5078216;28;20010;-61
2022/12/30 12:32:05;;;;;;;;;;;;;;;8.43;87.70;100119.09;5078726;28;19931;-61
2022/12/30 12:34:45;;;;;;;;;;;;;;;8.33;87.47;100103.41;5043286;28;21775;-60
2022/12/30 12:37:13;;;;;;;;;;;;;;;8.34;88.08;100089.22;5086089;28;20519;-60
2022/12/30 12:39:49;;;;;;;;;;;;;;;8.32;88.30;100091.16;5089223;28;19920;-59
2022/12/30 12:42:19;;;;;;;;;;;;;;;8.29;88.38;100073.81;5079948;28;19942;-61
2022/12/30 12:44:59;;;;;;;;;;;;;;;8.27;89.03;100069.72;5077314;28;19931;-58
2022/12/30 12:47:30;;;;;;;;;;;;;;;8.24;89.45;100062.13;5083413;28;20073;-60
2022/12/30 12:50:14;;;;;;;;;;;;;;;8.18;89.95;100052.25;5085913;28;19912;-60
2022/12/30 12:53:01;;;;;;;;;;;;;;;8.17;89.94;100040.03;5077652;28;20382;-60
2022/12/30 12:55:26;;;;;;;;;;;;;;;8.14;90.36;100014.75;5079795;28;20375;-61
2022/12/30 12:57:52;;;;;;;;;;;;;;;8.15;90.61;100018.22;5083389;28;20300;-60
2022/12/30 13:00:19;;;;;;;;;;;;;;;8.14;90.75;100006.81;5079010;28;20387;-61
2022/12/30 13:02:45;;;;;;;;;;;;;;;8.11;91.04;99999.25;5077361;28;19920;-58
2022/12/30 13:05:29;;;;;;;;;;;;;;;8.07;91.60;99982.88;5083942;28;19985;-60
2022/12/30 13:08:03;;;;;;;;;;;;;;;8.07;92.20;99958.25;5084460;28;19923;-60
2022/12/30 13:10:33;;;;;;;;;;;;;;;8.06;92.25;99946.03;5074848;28;20005;-61
2022/12/30 13:13:01;;;;;;;;;;;;;;;8.08;92.37;99930.81;5087731;28;19916;-58
2022/12/30 13:15:35;;;;;;;;;;;;;;;8.05;92.58;99907.38;5081735;28;20395;-61
2022/12/30 13:18:03;;;;;;;;;;;;;;;8.07;92.83;99892.97;5083643;28;20080;-60
2022/12/30 13:20:30;;;;;;;;;;;;;;;8.04;92.89;99874.00;5073403;28;19924;-60
2022/12/30 13:23:02;;;;;;;;;;;;;;;8.04;93.05;99877.47;5072920;28;20372;-60
2022/12/30 13:25:29;;;;;;;;;;;;;;;8.09;93.05;99874.28;5078102;28;19920;-59
2022/12/30 13:27:56;;;;;;;;;;;;;;;8.05;93.35;99857.13;5077726;28;19920;-61
2022/12/30 13:30:23;;;;;;;;;;;;;;;8.03;93.76;99853.84;5084044;28;19916;-60
2022/12/30 13:33:13;;;;;;;;;;;;;;;8.03;93.77;99838.00;5084752;28;19916;-63
2022/12/30 13:35:57;;;;;;;;;;;;;;;8.01;93.96;99845.28;5092127;28;19917;-60
2022/12/30 13:38:55;;;;;;;;;;;;;;;8.05;94.08;99814.84;5075461;28;19951;-61